Time;durP1;ratioP1;P1;durP2;ratioP2;P2;SDS_P1;SDS_P2;PMS_P1;PMS_P2;Temp;Humidity;BMP_temperature;BMP_pressure;BME280_temperature;BME280_humidity;BME280_pressure;Samples;Min_cycle;Max_cycle;Signal;HPM_P1;HPM_P2
2024/01/09 00:00:39;;;;;;;13.97;9.77;;;;;;;-4.35;65.53;96893.31;5090154;28;20294;-67
2024/01/09 00:03:05;;;;;;;14.83;9.70;;;;;;;-4.54;65.91;96886.91;5090158;28;20177;-68
2024/01/09 00:05:30;;;;;;;18.30;10.70;;;;;;;-4.54;65.88;96882.66;5089625;28;20671;-66
2024/01/09 00:07:55;;;;;;;18.33;9.70;;;;;;;-4.48;65.15;96876.81;5091195;28;20215;-68
2024/01/09 00:10:21;;;;;;;14.80;8.63;;;;;;;-4.23;64.52;96887.59;5090761;28;20169;-68
2024/01/09 00:12:46;;;;;;;14.73;8.60;;;;;;;-4.61;64.05;96888.47;5091431;28;20254;-67
2024/01/09 00:15:12;;;;;;;13.60;10.40;;;;;;;-4.51;65.14;96887.00;5091452;28;20946;-66
2024/01/09 00:17:37;;;;;;;15.90;10.00;;;;;;;-4.45;63.65;96888.84;5090353;28;20189;-67
2024/01/09 00:20:03;;;;;;;12.70;9.70;;;;;;;-4.72;64.48;96887.38;5091603;28;20185;-65
2024/01/09 00:22:28;;;;;;;17.23;9.57;;;;;;;-4.83;65.11;96884.56;5091836;28;20169;-67
2024/01/09 00:24:54;;;;;;;16.53;9.33;;;;;;;-4.90;65.79;96888.66;5092087;28;20180;-65
2024/01/09 00:27:19;;;;;;;12.40;8.77;;;;;;;-4.65;65.47;96881.56;5091844;28;20683;-65
2024/01/09 00:29:44;;;;;;;15.93;9.87;;;;;;;-4.43;63.99;96890.59;5091630;28;20177;-66
2024/01/09 00:32:10;;;;;;;15.67;9.50;;;;;;;-4.66;64.21;96896.88;5091318;28;20210;-68
2024/01/09 00:34:35;;;;;;;13.23;11.83;;;;;;;-5.11;65.19;96889.00;5091347;28;20173;-66
2024/01/09 00:37:00;;;;;;;12.60;9.07;;;;;;;-4.95;64.95;96877.44;5090032;28;20189;-67
2024/01/09 00:39:26;;;;;;;15.97;9.20;;;;;;;-4.76;65.22;96890.69;5089509;28;20631;-66
2024/01/09 00:41:51;;;;;;;25.00;9.63;;;;;;;-4.84;64.43;96887.06;5089662;28;20214;-67
2024/01/09 00:44:17;;;;;;;19.47;10.07;;;;;;;-4.52;64.20;96878.44;5091610;28;20173;-66
2024/01/09 00:46:42;;;;;;;14.03;9.97;;;;;;;-4.66;63.77;96887.50;5090575;28;20718;-67
2024/01/09 00:49:07;;;;;;;15.23;9.40;;;;;;;-4.52;63.28;96885.25;5088628;28;20201;-66
2024/01/09 00:51:33;;;;;;;15.43;9.73;;;;;;;-4.67;63.05;96880.66;5088624;28;20202;-66
2024/01/09 00:53:58;;;;;;;15.23;10.60;;;;;;;-4.57;64.28;96886.88;5088911;28;20205;-65
2024/01/09 00:56:23;;;;;;;13.40;9.37;;;;;;;-4.38;63.73;96894.13;5087982;28;20193;-65
2024/01/09 00:58:49;;;;;;;11.80;9.00;;;;;;;-4.59;63.92;96893.63;5089503;28;20177;-68
2024/01/09 01:01:14;;;;;;;17.87;10.00;;;;;;;-5.05;65.00;96892.56;5091057;28;20181;-68
2024/01/09 01:03:41;;;;;;;17.60;10.07;;;;;;;-5.02;64.67;96893.50;5091241;28;20181;-66
2024/01/09 01:06:06;;;;;;;13.50;11.00;;;;;;;-5.03;65.30;96891.78;5090318;28;20182;-68
2024/01/09 01:08:32;;;;;;;21.50;11.10;;;;;;;-5.08;65.24;96905.25;5091137;28;20429;-65
2024/01/09 01:10:57;;;;;;;13.57;9.40;;;;;;;-5.35;64.82;96899.47;5091499;28;20887;-68
2024/01/09 01:13:22;;;;;;;16.20;9.13;;;;;;;-5.27;65.17;96902.22;5090804;28;20754;-66
2024/01/09 01:15:48;;;;;;;17.20;10.57;;;;;;;-5.27;65.00;96903.94;5091051;28;20172;-68
2024/01/09 01:18:13;;;;;;;12.93;9.50;;;;;;;-5.27;64.93;96902.22;5090814;28;20892;-66
2024/01/09 01:20:39;;;;;;;15.13;9.67;;;;;;;-5.15;65.20;96902.56;5091119;28;20173;-67
2024/01/09 01:23:04;;;;;;;14.73;10.10;;;;;;;-5.07;65.55;96897.63;5091744;28;20178;-65
2024/01/09 01:25:29;;;;;;;14.57;9.77;;;;;;;-5.31;65.14;96897.88;5091234;28;20169;-67
2024/01/09 01:27:55;;;;;;;21.50;11.97;;;;;;;-5.31;65.65;96897.88;5090872;28;20666;-67
2024/01/09 01:30:20;;;;;;;13.83;9.03;;;;;;;-5.33;65.56;96907.22;5091660;28;20239;-66
2024/01/09 01:32:45;;;;;;;16.23;9.23;;;;;;;-5.45;65.60;96902.63;5091482;28;20250;-67
2024/01/09 01:35:11;;;;;;;12.20;8.43;;;;;;;-5.49;65.70;96905.94;5091585;28;20728;-68
2024/01/09 01:37:36;;;;;;;14.90;8.37;;;;;;;-5.70;66.75;96907.91;5090356;28;20258;-65
2024/01/09 01:40:03;;;;;;;16.87;8.80;;;;;;;-5.81;66.82;96913.59;5091014;28;20173;-66
2024/01/09 01:42:28;;;;;;;13.67;8.17;;;;;;;-5.73;66.36;96912.94;5088823;28;20297;-66
2024/01/09 01:44:54;;;;;;;17.63;10.63;;;;;;;-5.58;66.64;96921.88;5091320;28;20912;-66
2024/01/09 01:47:19;;;;;;;20.73;9.90;;;;;;;-5.59;66.24;96915.06;5090633;28;20192;-66
2024/01/09 01:49:45;;;;;;;17.97;10.90;;;;;;;-5.73;66.32;96907.84;5090315;28;20184;-64
2024/01/09 01:52:11;;;;;;;13.37;8.87;;;;;;;-5.69;66.25;96907.97;5089714;28;20296;-67
2024/01/09 01:54:39;;;;;;;12.60;9.07;;;;;;;-5.54;66.01;96916.03;5089151;28;20264;-67
2024/01/09 01:57:06;;;;;;;9.30;8.40;;;;;;;-5.68;66.19;96903.72;5089858;28;20445;-67
2024/01/09 01:59:34;;;;;;;11.87;9.00;;;;;;;-5.67;65.83;96907.97;5087998;28;20403;-68
2024/01/09 02:02:02;;;;;;;15.27;10.50;;;;;;;-5.74;66.46;96906.94;5088054;28;20440;-68
2024/01/09 02:04:28;;;;;;;16.43;8.60;;;;;;;-5.89;66.50;96909.94;5087959;28;20421;-68
2024/01/09 02:06:54;;;;;;;14.57;8.57;;;;;;;-5.69;66.56;96914.75;5087677;28;20431;-67
2024/01/09 02:09:20;;;;;;;18.67;10.97;;;;;;;-5.89;66.54;96915.06;5086867;28;20412;-66
2024/01/09 02:11:48;;;;;;;16.60;9.50;;;;;;;-5.80;66.77;96912.78;5086409;28;20284;-70
2024/01/09 02:14:14;;;;;;;14.20;9.90;;;;;;;-5.75;66.37;96903.53;5086926;28;20515;-67
2024/01/09 02:16:39;;;;;;;9.93;8.57;;;;;;;-5.86;66.50;96904.06;5086793;28;20518;-68
2024/01/09 02:19:05;;;;;;;14.30;9.70;;;;;;;-5.83;66.60;96904.16;5087812;28;20174;-67
2024/01/09 02:21:30;;;;;;;12.80;8.53;;;;;;;-5.74;66.40;96909.50;5087150;28;20200;-66
2024/01/09 02:23:56;;;;;;;16.93;9.03;;;;;;;-5.75;66.71;96906.09;5092776;28;20236;-65
2024/01/09 02:26:29;;;;;;;13.60;9.70;;;;;;;-5.50;65.85;96903.31;5104217;28;20189;-66
2024/01/09 02:28:58;;;;;;;19.87;11.97;;;;;;;-5.45;65.72;96905.19;5104288;28;20177;-68
2024/01/09 02:31:24;;;;;;;12.50;8.40;;;;;;;-5.70;65.52;96906.22;5099649;28;20407;-66
2024/01/09 02:33:50;;;;;;;15.27;9.93;;;;;;;-5.75;65.41;96916.31;5088501;28;20408;-66
2024/01/09 02:36:15;;;;;;;13.10;9.43;;;;;;;-5.80;66.04;96910.22;5086953;28;20527;-67
2024/01/09 02:38:41;;;;;;;14.77;9.20;;;;;;;-5.56;65.47;96912.56;5086853;28;20197;-67
2024/01/09 02:41:06;;;;;;;14.20;8.80;;;;;;;-5.68;65.26;96908.81;5092795;28;20173;-67
2024/01/09 02:43:31;;;;;;;16.13;10.73;;;;;;;-5.47;64.79;96909.41;5092994;28;20652;-67
2024/01/09 02:45:57;;;;;;;16.23;10.13;;;;;;;-5.63;65.47;96907.25;5093134;28;20174;-66
2024/01/09 02:48:22;;;;;;;13.50;8.40;;;;;;;-5.77;66.29;96892.41;5093050;28;20261;-66
2024/01/09 02:50:47;;;;;;;14.57;9.67;;;;;;;-5.96;66.28;96893.59;5092157;28;20185;-65
2024/01/09 02:53:13;;;;;;;15.63;9.10;;;;;;;-5.90;66.72;96900.56;5091816;28;20655;-68
2024/01/09 02:55:38;;;;;;;19.73;11.00;;;;;;;-5.84;66.19;96897.31;5091680;28;20302;-67
2024/01/09 02:58:04;;;;;;;17.40;10.70;;;;;;;-5.97;66.83;96908.91;5090119;28;20618;-67
2024/01/09 03:00:30;;;;;;;15.10;10.13;;;;;;;-6.10;66.98;96906.81;5090752;28;20168;-65
2024/01/09 03:02:55;;;;;;;15.93;9.53;;;;;;;-5.85;66.04;96900.69;5090645;28;20649;-68
2024/01/09 03:05:21;;;;;;;17.50;10.57;;;;;;;-5.90;66.55;96892.03;5091469;28;20418;-67
2024/01/09 03:07:46;;;;;;;12.80;10.87;;;;;;;-5.77;66.73;96889.84;5090210;28;20258;-66
2024/01/09 03:10:11;;;;;;;16.07;9.87;;;;;;;-5.83;66.48;96906.72;5090654;28;20522;-67
2024/01/09 03:12:37;;;;;;;15.23;10.10;;;;;;;-5.88;65.88;96895.47;5092089;28;20211;-67
2024/01/09 03:15:03;;;;;;;11.43;8.03;;;;;;;-5.91;66.65;96903.06;5092079;28;20195;-67
2024/01/09 03:17:28;;;;;;;16.77;10.40;;;;;;;-6.04;66.18;96897.66;5094809;28;20766;-65
2024/01/09 03:19:54;;;;;;;14.63;9.33;;;;;;;-5.83;66.52;96899.91;5093616;28;20415;-66
2024/01/09 03:22:19;;;;;;;15.60;10.20;;;;;;;-6.14;66.77;96903.31;5094551;28;20248;-66
2024/01/09 03:24:44;;;;;;;16.40;10.23;;;;;;;-6.29;66.91;96887.53;5091614;28;20655;-66
2024/01/09 03:27:10;;;;;;;14.03;7.57;;;;;;;-6.34;67.29;96894.22;5089718;28;20188;-67
2024/01/09 03:29:35;;;;;;;17.00;11.13;;;;;;;-6.15;67.25;96904.13;5089543;28;20173;-68
2024/01/09 03:32:01;;;;;;;19.30;10.67;;;;;;;-6.21;67.20;96897.16;5089580;28;20197;-66
2024/01/09 03:34:26;;;;;;;15.50;9.50;;;;;;;-6.05;66.96;96900.16;5089823;28;20249;-67
2024/01/09 03:36:51;;;;;;;17.13;8.70;;;;;;;-5.91;66.33;96896.25;5090068;28;20185;-67
2024/01/09 03:39:17;;;;;;;13.83;9.57;;;;;;;-5.92;65.99;96893.69;5089784;28;20937;-68
2024/01/09 03:41:43;;;;;;;11.60;9.00;;;;;;;-5.88;66.40;96901.47;5089414;28;20165;-67
2024/01/09 03:44:09;;;;;;;14.97;9.30;;;;;;;-6.13;65.92;96892.28;5089698;28;20252;-68
2024/01/09 03:46:35;;;;;;;19.23;10.20;;;;;;;-6.36;67.25;96901.81;5089625;28;20205;-66
2024/01/09 03:49:00;;;;;;;13.80;8.07;;;;;;;-6.34;67.74;96897.63;5089583;28;20411;-66
2024/01/09 03:51:26;;;;;;;21.43;8.70;;;;;;;-6.27;67.23;96907.19;5089494;28;20200;-66
2024/01/09 03:53:52;;;;;;;19.00;9.77;;;;;;;-6.31;66.35;96889.19;5089361;28;20260;-67
2024/01/09 03:56:17;;;;;;;13.03;9.37;;;;;;;-6.22;67.48;96899.66;5089180;28;20779;-66
2024/01/09 03:58:43;;;;;;;14.67;8.63;;;;;;;-6.06;66.70;96898.44;5089795;28;20414;-67
2024/01/09 04:01:10;;;;;;;15.83;9.70;;;;;;;-6.24;66.28;96903.88;5089101;28;20222;-66
2024/01/09 04:03:35;;;;;;;16.53;10.43;;;;;;;-6.18;66.24;96899.81;5089407;28;20176;-68
2024/01/09 04:06:02;;;;;;;15.40;11.20;;;;;;;-6.23;66.29;96893.69;5089202;28;20404;-67
2024/01/09 04:08:27;;;;;;;16.93;11.57;;;;;;;-6.33;66.57;96899.38;5088823;28;20181;-68
2024/01/09 04:10:53;;;;;;;16.37;8.50;;;;;;;-6.46;67.47;96903.22;5088921;28;21035;-68
2024/01/09 04:13:19;;;;;;;20.73;9.60;;;;;;;-6.32;67.24;96893.44;5088676;28;20212;-66
2024/01/09 04:15:45;;;;;;;14.10;9.83;;;;;;;-6.12;66.26;96905.91;5089074;28;20181;-66
2024/01/09 04:18:10;;;;;;;22.03;9.60;;;;;;;-6.04;66.24;96909.56;5088839;28;20424;-66
2024/01/09 04:20:35;;;;;;;20.27;9.80;;;;;;;-5.96;66.11;96903.81;5089044;28;20169;-69
2024/01/09 04:23:01;;;;;;;17.00;11.53;;;;;;;-6.29;66.40;96901.16;5089037;28;20810;-68
2024/01/09 04:25:26;;;;;;;18.60;10.63;;;;;;;-6.18;67.25;96893.84;5088604;28;20229;-68
2024/01/09 04:27:51;;;;;;;17.53;11.30;;;;;;;-6.00;66.30;96901.16;5088932;28;20181;-67
2024/01/09 04:30:17;;;;;;;16.63;11.40;;;;;;;-6.07;66.23;96907.78;5089179;28;20165;-67
2024/01/09 04:32:42;;;;;;;13.70;9.33;;;;;;;-6.10;66.22;96904.28;5089457;28;20534;-67
2024/01/09 04:35:08;;;;;;;18.80;11.87;;;;;;;-5.91;66.26;96905.63;5088870;28;20200;-67
2024/01/09 04:37:33;;;;;;;18.67;10.90;;;;;;;-6.04;65.99;96909.56;5088317;28;20793;-68
2024/01/09 04:39:58;;;;;;;17.77;12.00;;;;;;;-5.88;66.06;96909.16;5088683;28;20162;-65
2024/01/09 04:42:24;;;;;;;17.97;11.27;;;;;;;-5.73;65.83;96910.41;5088739;28;20158;-67
2024/01/09 04:44:50;;;;;;;18.60;11.40;;;;;;;-5.88;66.29;96906.59;5088602;28;20169;-65
2024/01/09 04:47:18;;;;;;;15.20;10.73;;;;;;;-6.00;66.43;96906.25;5088864;28;20182;-67
2024/01/09 04:49:43;;;;;;;18.83;10.53;;;;;;;-5.98;66.01;96907.16;5088132;28;20190;-68
2024/01/09 04:52:09;;;;;;;15.83;11.37;;;;;;;-5.78;66.10;96908.56;5088733;28;21109;-67
2024/01/09 04:54:34;;;;;;;20.93;11.20;;;;;;;-5.84;66.77;96907.53;5088931;28;20173;-67
2024/01/09 04:56:59;;;;;;;16.97;10.57;;;;;;;-5.71;66.18;96909.59;5088806;28;20553;-65
2024/01/09 04:59:25;;;;;;;17.70;11.50;;;;;;;-6.14;66.59;96912.66;5087924;28;20169;-65
2024/01/09 05:01:50;;;;;;;15.83;11.10;;;;;;;-6.24;68.41;96912.38;5087548;28;20168;-67
2024/01/09 05:04:16;;;;;;;19.00;10.57;;;;;;;-6.37;67.99;96910.31;5088507;28;20223;-68
2024/01/09 05:06:41;;;;;;;21.07;12.60;;;;;;;-6.26;68.78;96915.72;5088127;28;20189;-65
2024/01/09 05:09:06;;;;;;;18.07;10.47;;;;;;;-6.31;68.55;96910.47;5087573;28;20714;-67
2024/01/09 05:11:32;;;;;;;15.60;9.63;;;;;;;-6.36;67.91;96912.03;5087693;28;20659;-65
2024/01/09 05:13:57;;;;;;;18.20;10.50;;;;;;;-6.31;68.28;96912.16;5087540;28;20252;-67
2024/01/09 05:16:24;;;;;;;21.43;12.10;;;;;;;-5.89;67.61;96909.94;5088107;28;20197;-66
2024/01/09 05:18:49;;;;;;;22.80;11.90;;;;;;;-6.23;68.03;96905.63;5088846;28;20189;-66
2024/01/09 05:21:15;;;;;;;19.43;10.60;;;;;;;-6.20;68.66;96908.25;5088018;28;20450;-67
2024/01/09 05:23:40;;;;;;;19.57;12.73;;;;;;;-6.19;68.92;96917.63;5087897;28;20157;-67
2024/01/09 05:26:06;;;;;;;18.07;11.67;;;;;;;-6.33;69.55;96909.59;5087587;28;20157;-67
2024/01/09 05:28:32;;;;;;;18.53;13.20;;;;;;;-6.26;68.63;96913.16;5087494;28;20256;-64
2024/01/09 05:30:57;;;;;;;20.07;12.50;;;;;;;-6.23;68.58;96908.16;5087152;28;20965;-66
2024/01/09 05:33:22;;;;;;;22.00;11.30;;;;;;;-6.09;68.74;96911.13;5087341;28;20293;-67
2024/01/09 05:35:48;;;;;;;21.50;11.57;;;;;;;-6.13;68.07;96909.31;5087474;28;20176;-67
2024/01/09 05:38:13;;;;;;;18.43;11.03;;;;;;;-6.33;69.54;96907.03;5087097;28;20300;-67
2024/01/09 05:40:39;;;;;;;13.90;9.33;;;;;;;-6.09;68.56;96911.13;5087672;28;20257;-65
2024/01/09 05:43:04;;;;;;;19.67;9.60;;;;;;;-6.31;68.75;96917.28;5088075;28;20187;-64
2024/01/09 05:45:29;;;;;;;19.90;12.70;;;;;;;-6.16;68.80;96912.63;5087887;28;20192;-66
2024/01/09 05:47:55;;;;;;;14.13;10.33;;;;;;;-6.03;68.48;96921.50;5087457;28;20281;-68
2024/01/09 05:50:20;;;;;;;18.93;10.47;;;;;;;-6.15;68.31;96922.00;5087459;28;20169;-67
2024/01/09 05:52:45;;;;;;;18.80;12.00;;;;;;;-6.21;68.51;96920.16;5087115;28;20690;-67
2024/01/09 05:55:11;;;;;;;20.73;12.73;;;;;;;-6.36;69.07;96917.13;5087140;28;20215;-67
2024/01/09 05:57:36;;;;;;;19.13;9.87;;;;;;;-6.35;68.55;96915.44;5087368;28;20189;-66
2024/01/09 06:00:02;;;;;;;18.20;11.60;;;;;;;-6.43;69.42;96936.50;5087096;28;20181;-67
2024/01/09 06:02:28;;;;;;;15.90;10.00;;;;;;;-6.43;69.04;96925.44;5071112;28;20166;-68
2024/01/09 06:04:54;;;;;;;16.27;10.80;;;;;;;-6.42;68.42;96927.19;5086996;28;20500;-66
2024/01/09 06:07:20;;;;;;;14.67;9.00;;;;;;;-6.39;69.32;96917.06;5086892;28;20189;-69
2024/01/09 06:09:46;;;;;;;18.07;10.50;;;;;;;-6.12;69.05;96916.97;5086792;28;20575;-68
2024/01/09 06:12:12;;;;;;;20.87;10.37;;;;;;;-6.12;67.70;96921.22;5087224;28;20512;-68
2024/01/09 06:14:37;;;;;;;21.53;11.73;;;;;;;-6.40;68.56;96931.50;5087584;28;20207;-64
2024/01/09 06:17:03;;;;;;;15.57;11.10;;;;;;;-6.27;69.01;96931.88;5087023;28;20439;-67
2024/01/09 06:19:28;;;;;;;19.87;11.73;;;;;;;-6.44;69.59;96934.78;5089889;28;20179;-68
2024/01/09 06:21:53;;;;;;;19.20;13.13;;;;;;;-6.36;69.27;96929.03;5086706;28;20172;-69
2024/01/09 06:24:20;;;;;;;18.93;11.70;;;;;;;-6.35;69.03;96939.31;5087192;28;20644;-67
2024/01/09 06:26:46;;;;;;;18.90;12.20;;;;;;;-6.48;69.23;96932.09;5086795;28;20208;-68
2024/01/09 06:29:11;;;;;;;16.93;10.43;;;;;;;-6.38;68.28;96939.19;5086964;28;21102;-65
2024/01/09 06:31:37;;;;;;;19.43;8.57;;;;;;;-6.61;68.68;96924.06;5087088;28;20201;-68
2024/01/09 06:34:03;;;;;;;19.30;11.00;;;;;;;-6.77;70.15;96938.84;5087826;28;20209;-68
2024/01/09 06:36:28;;;;;;;18.27;11.70;;;;;;;-6.56;69.22;96941.22;5087951;28;20886;-69
2024/01/09 06:38:53;;;;;;;17.07;10.20;;;;;;;-6.51;69.06;96943.06;5086866;28;20215;-68
2024/01/09 06:41:19;;;;;;;21.07;13.17;;;;;;;-6.53;69.62;96933.63;5088431;28;20166;-66
2024/01/09 06:43:44;;;;;;;15.30;9.40;;;;;;;-6.51;68.72;96937.09;5088034;28;20540;-68
2024/01/09 06:46:10;;;;;;;16.93;11.53;;;;;;;-6.47;68.39;96944.91;5088441;28;20180;-68
2024/01/09 06:48:35;;;;;;;18.73;11.00;;;;;;;-6.46;68.84;96950.88;5087998;28;20161;-68
2024/01/09 06:51:00;;;;;;;22.70;12.33;;;;;;;-6.52;69.66;96950.69;5085741;28;20218;-68
2024/01/09 06:53:26;;;;;;;17.53;11.27;;;;;;;-6.38;68.38;96949.41;5086656;28;20193;-67
2024/01/09 06:55:51;;;;;;;17.73;12.23;;;;;;;-6.56;69.20;96961.63;5086532;28;20283;-68
2024/01/09 06:58:17;;;;;;;18.37;11.37;;;;;;;-6.85;69.52;96956.44;5085689;28;20239;-66
2024/01/09 07:00:43;;;;;;;25.80;14.27;;;;;;;-6.55;68.34;96961.66;5085779;28;20666;-66
2024/01/09 07:03:09;;;;;;;20.77;11.30;;;;;;;-6.56;67.55;96959.94;5086550;28;20202;-65
2024/01/09 07:05:35;;;;;;;25.17;11.90;;;;;;;-6.64;68.54;96962.25;5085973;28;20515;-66
2024/01/09 07:08:00;;;;;;;17.20;11.10;;;;;;;-6.84;69.62;96958.19;5085262;28;20899;-67
2024/01/09 07:10:26;;;;;;;25.60;12.40;;;;;;;-6.60;68.82;96955.56;5086536;28;20165;-68
2024/01/09 07:12:51;;;;;;;20.50;11.30;;;;;;;-6.65;67.86;96959.66;5090453;28;20204;-69
2024/01/09 07:15:16;;;;;;;25.37;14.27;;;;;;;-6.57;68.85;96972.66;5086424;28;20707;-66
2024/01/09 07:17:42;;;;;;;17.30;10.33;;;;;;;-6.41;67.44;96969.75;5085861;28;20199;-69
2024/01/09 07:20:07;;;;;;;21.87;12.87;;;;;;;-6.46;67.40;96963.66;5086227;28;20199;-66
2024/01/09 07:22:33;;;;;;;19.60;12.63;;;;;;;-6.49;67.42;96968.66;5084428;28;20575;-66
2024/01/09 07:24:58;;;;;;;22.73;12.40;;;;;;;-6.22;67.18;96974.59;5087358;28;20169;-65
2024/01/09 07:27:24;;;;;;;19.63;13.67;;;;;;;-6.02;67.11;96969.25;5089871;28;20953;-67
2024/01/09 07:29:49;;;;;;;18.50;12.80;;;;;;;-6.26;66.29;96970.25;5089558;28;20287;-67
2024/01/09 07:32:14;;;;;;;17.10;11.20;;;;;;;-6.13;67.22;96975.72;5087809;28;20201;-67
2024/01/09 07:34:40;;;;;;;17.77;12.13;;;;;;;-6.19;67.06;96979.81;5090061;28;20193;-67
2024/01/09 07:37:05;;;;;;;16.33;11.33;;;;;;;-6.12;66.40;96973.19;5090288;28;20192;-68
2024/01/09 07:39:31;;;;;;;16.67;10.17;;;;;;;-6.63;68.17;96984.41;5090302;28;20901;-68
2024/01/09 07:41:58;;;;;;;16.70;11.10;;;;;;;-6.69;67.99;96994.41;5089331;28;20173;-67
2024/01/09 07:44:24;;;;;;;14.70;10.63;;;;;;;-6.56;67.04;96984.59;5089737;28;20485;-67
2024/01/09 07:46:50;;;;;;;21.83;13.03;;;;;;;-6.45;68.11;96984.13;5089538;28;20435;-67
2024/01/09 07:49:15;;;;;;;20.63;11.80;;;;;;;-6.28;67.18;96988.88;5090386;28;20177;-65
2024/01/09 07:51:40;;;;;;;13.37;8.27;;;;;;;-6.61;66.42;96987.88;5089912;28;20188;-66
2024/01/09 07:54:06;;;;;;;21.13;11.30;;;;;;;-6.49;67.80;96983.97;5090974;28;20188;-67
2024/01/09 07:56:31;;;;;;;19.23;10.73;;;;;;;-6.35;67.46;96992.06;5100361;28;20193;-65
2024/01/09 07:58:57;;;;;;;20.93;11.27;;;;;;;-6.38;67.07;97008.16;5102514;28;20173;-67
2024/01/09 08:01:24;;;;;;;28.53;13.30;;;;;;;-6.34;66.38;97002.31;5094505;28;20196;-67
2024/01/09 08:03:49;;;;;;;24.37;12.63;;;;;;;-6.51;66.94;97006.03;5074204;28;20173;-65
2024/01/09 08:06:16;;;;;;;17.93;13.00;;;;;;;-6.65;67.03;97003.91;5068702;28;20409;-66
2024/01/09 08:08:41;;;;;;;14.83;8.40;;;;;;;-6.65;68.20;97001.34;5068243;28;20178;-65
2024/01/09 08:11:07;;;;;;;19.27;11.53;;;;;;;-6.75;68.71;97004.44;5067928;28;20573;-66
2024/01/09 08:13:33;;;;;;;19.90;13.20;;;;;;;-6.64;68.19;97005.66;5071683;28;20213;-67
2024/01/09 08:15:58;;;;;;;18.27;10.93;;;;;;;-6.60;67.08;97004.91;5075873;28;20423;-66
2024/01/09 08:18:24;;;;;;;18.63;11.10;;;;;;;-6.42;67.13;97007.19;5075014;28;20179;-67
2024/01/09 08:20:50;;;;;;;11.17;7.00;;;;;;;-6.71;66.71;97016.44;5068439;28;20257;-67
2024/01/09 08:23:15;;;;;;;13.53;9.80;;;;;;;-6.78;68.48;97014.50;5068863;28;20173;-67
2024/01/09 08:25:41;;;;;;;18.70;10.47;;;;;;;-6.53;68.20;97005.97;5069405;28;20178;-68
2024/01/09 08:28:07;;;;;;;21.80;12.50;;;;;;;-6.51;66.90;97017.13;5070739;28;20189;-66
2024/01/09 08:30:32;;;;;;;24.17;12.40;;;;;;;-6.47;67.37;97018.06;5070196;28;20170;-66
2024/01/09 08:32:57;;;;;;;19.83;12.73;;;;;;;-6.79;67.65;97009.38;5069411;28;20277;-68
2024/01/09 08:35:23;;;;;;;17.40;11.10;;;;;;;-6.68;67.74;97001.25;5068496;28;20178;-67
2024/01/09 08:37:48;;;;;;;19.37;11.10;;;;;;;-6.71;67.01;97015.59;5067259;28;20216;-66
2024/01/09 08:40:14;;;;;;;20.40;12.93;;;;;;;-6.74;66.34;97031.66;5068444;28;20170;-67
2024/01/09 08:42:39;;;;;;;20.90;11.80;;;;;;;-6.38;66.95;97026.03;5069232;28;20163;-68
2024/01/09 08:45:05;;;;;;;18.03;11.57;;;;;;;-6.37;66.68;97014.16;5072118;28;20178;-65
2024/01/09 08:47:30;;;;;;;15.20;11.50;;;;;;;-6.27;66.39;97014.47;5090629;28;20261;-66
2024/01/09 08:49:56;;;;;;;19.33;10.50;;;;;;;-6.53;65.21;97015.34;5092304;28;20407;-67
2024/01/09 08:52:24;;;;;;;22.23;11.63;;;;;;;-6.31;65.39;97022.84;5089825;28;20212;-68
2024/01/09 08:54:53;;;;;;;18.60;12.73;;;;;;;-6.41;66.14;97021.69;5089261;28;20231;-67
2024/01/09 08:57:19;;;;;;;20.70;11.27;;;;;;;-6.39;65.61;97012.38;5088461;28;20455;-68
2024/01/09 08:59:45;;;;;;;29.10;13.37;;;;;;;-6.18;65.69;97024.09;5087969;28;20885;-67
2024/01/09 09:02:10;;;;;;;15.00;11.10;;;;;;;-6.09;64.67;97015.88;5087469;28;20451;-68
2024/01/09 09:04:35;;;;;;;21.00;9.77;;;;;;;-6.21;66.17;97021.47;5087266;28;20185;-67
2024/01/09 09:07:01;;;;;;;16.50;10.60;;;;;;;-6.33;66.00;97014.28;5087187;28;20200;-67
2024/01/09 09:09:27;;;;;;;24.57;13.67;;;;;;;-6.56;66.91;97013.56;5086549;28;20655;-66
2024/01/09 09:11:52;;;;;;;14.87;9.30;;;;;;;-6.25;67.00;97012.81;5086546;28;20248;-67
2024/01/09 09:14:17;;;;;;;22.10;12.33;;;;;;;-6.10;65.56;97011.56;5086325;28;20646;-67
2024/01/09 09:16:43;;;;;;;22.57;12.50;;;;;;;-6.04;65.66;97022.84;5086343;28;20189;-67
2024/01/09 09:19:09;;;;;;;29.33;13.23;;;;;;;-5.99;65.46;97011.06;5086266;28;20656;-67
2024/01/09 09:21:34;;;;;;;22.43;11.67;;;;;;;-6.12;65.24;97016.63;5086070;28;20206;-67
2024/01/09 09:24:00;;;;;;;22.10;11.77;;;;;;;-6.21;64.98;97018.91;5086363;28;20195;-67
2024/01/09 09:26:26;;;;;;;19.17;11.40;;;;;;;-5.97;64.77;97023.91;5086473;28;20197;-67
2024/01/09 09:28:52;;;;;;;22.73;11.27;;;;;;;-5.92;65.46;97024.00;5086208;28;20197;-67
2024/01/09 09:31:17;;;;;;;19.03;11.47;;;;;;;-6.02;64.77;97015.25;5086241;28;20790;-66
2024/01/09 09:33:42;;;;;;;20.47;10.93;;;;;;;-6.02;65.36;97020.34;5086456;28;20975;-66
2024/01/09 09:36:09;;;;;;;18.03;12.77;;;;;;;-5.69;64.70;97024.66;5086349;28;20169;-66
2024/01/09 09:38:34;;;;;;;18.40;12.73;;;;;;;-6.08;64.81;97025.25;5085679;28;20193;-68
2024/01/09 09:41:07;;;;;;;25.70;13.20;;;;;;;-5.77;63.78;97015.09;5086402;28;21233;-67
2024/01/09 09:43:35;;;;;;;18.97;11.37;;;;;;;-5.67;64.06;97017.91;5085824;28;20188;-67
2024/01/09 09:46:01;;;;;;;17.63;12.60;;;;;;;-5.69;63.44;97027.22;5085769;28;20419;-68
2024/01/09 09:48:28;;;;;;;24.20;12.50;;;;;;;-4.82;62.35;97014.28;5085146;28;20411;-69
2024/01/09 09:50:58;;;;;;;19.77;11.40;;;;;;;-5.00;62.13;97018.94;5085851;28;20469;-67
2024/01/09 09:53:28;;;;;;;21.30;11.70;;;;;;;-4.78;61.17;97017.78;5086163;28;20463;-65
2024/01/09 09:55:54;;;;;;;22.97;12.47;;;;;;;-4.94;60.54;97002.06;5086051;28;20408;-67
2024/01/09 09:58:19;;;;;;;20.60;12.00;;;;;;;-4.71;60.52;97009.44;5090221;28;20438;-65
2024/01/09 10:00:45;;;;;;;23.30;11.37;;;;;;;-4.91;60.81;97004.69;5089134;28;20174;-66
2024/01/09 10:03:13;;;;;;;17.07;12.30;;;;;;;-4.69;60.12;96995.00;5090434;28;20170;-67
2024/01/09 10:05:41;;;;;;;18.67;12.00;;;;;;;-4.83;60.91;97004.03;5089178;28;20214;-65
2024/01/09 10:08:10;;;;;;;21.63;12.83;;;;;;;-4.84;60.38;96990.34;5088521;28;20914;-65
2024/01/09 10:10:36;;;;;;;25.43;13.27;;;;;;;-4.51;60.17;96992.03;5087063;28;20510;-67
2024/01/09 10:13:03;;;;;;;17.07;12.00;;;;;;;-4.29;59.44;96996.81;5086701;28;20451;-66
2024/01/09 10:15:28;;;;;;;21.53;13.17;;;;;;;-4.61;59.88;96995.16;5086997;28;21107;-65
2024/01/09 10:17:54;;;;;;;19.03;12.23;;;;;;;-4.47;59.57;96991.25;5086465;28;20493;-65
2024/01/09 10:20:19;;;;;;;19.63;12.40;;;;;;;-4.36;59.68;96986.41;5086186;28;20181;-66
2024/01/09 10:22:45;;;;;;;20.47;12.73;;;;;;;-4.07;58.00;96987.06;5088371;28;20169;-67
2024/01/09 10:25:12;;;;;;;19.87;11.30;;;;;;;-4.29;59.27;96981.44;5087868;28;20184;-65
2024/01/09 10:27:39;;;;;;;16.83;11.83;;;;;;;-4.11;58.97;96990.38;5087865;28;20281;-67
2024/01/09 10:30:07;;;;;;;23.67;14.37;;;;;;;-3.88;57.94;96993.44;5087210;28;20423;-65
2024/01/09 10:32:33;;;;;;;22.13;12.60;;;;;;;-4.08;57.97;96986.19;5087469;28;20477;-66
2024/01/09 10:34:58;;;;;;;18.00;12.20;;;;;;;-4.15;57.48;96986.88;5086437;28;20411;-65
2024/01/09 10:37:24;;;;;;;25.00;12.20;;;;;;;-4.17;57.99;96996.22;5086429;28;21052;-68
2024/01/09 10:39:50;;;;;;;20.13;12.63;;;;;;;-3.71;57.79;96974.19;5089167;28;20223;-66
2024/01/09 10:42:16;;;;;;;22.33;12.70;;;;;;;-3.73;57.82;96970.72;5088242;28;20253;-69
2024/01/09 10:44:41;;;;;;;25.10;12.30;;;;;;;-3.91;57.25;96978.00;5087786;28;20177;-66
2024/01/09 10:47:13;;;;;;;23.70;11.90;;;;;;;-3.47;56.95;96967.81;5088231;28;21208;-68
2024/01/09 10:49:43;;;;;;;21.07;12.00;;;;;;;-3.77;56.14;96978.31;5087866;28;20494;-66
2024/01/09 10:52:15;;;;;;;21.70;11.30;;;;;;;-3.59;55.66;96970.13;5086752;28;20505;-65
2024/01/09 10:54:42;;;;;;;27.57;12.03;;;;;;;-3.77;56.46;96968.91;5086471;28;20476;-65
2024/01/09 10:57:14;;;;;;;17.50;11.70;;;;;;;-4.20;57.58;96985.06;5086794;28;20428;-66
2024/01/09 10:59:44;;;;;;;19.40;12.07;;;;;;;-3.96;56.89;96977.06;5087692;28;20480;-67
2024/01/09 11:02:22;;;;;;;19.63;11.90;;;;;;;-3.96;56.78;96966.81;5091047;28;20422;-66
2024/01/09 11:04:48;;;;;;;21.47;11.20;;;;;;;-3.41;56.15;96961.09;5091076;28;20831;-66
2024/01/09 11:07:17;;;;;;;18.23;11.17;;;;;;;-3.35;55.44;96973.19;5090320;28;20431;-65
2024/01/09 11:09:45;;;;;;;25.60;13.50;;;;;;;-3.46;57.35;96969.53;5090039;28;20535;-66
2024/01/09 11:12:28;;;;;;;17.17;11.00;;;;;;;-3.14;55.95;96961.59;5090071;28;20463;-66